createdAt,value
2023-01-26T00:01:11.550Z,102064.88
2023-01-26T00:04:14.235Z,102068.88
2023-01-26T00:07:18.207Z,102067.84
2023-01-26T00:10:20.841Z,102067.06
2023-01-26T00:13:23.493Z,102060.72
2023-01-26T00:16:27.210Z,102065.34
2023-01-26T00:19:29.794Z,102068.66
2023-01-26T00:22:33.879Z,102058.13
2023-01-26T00:25:39.837Z,102046.25
2023-01-26T00:28:42.490Z,102054.03
2023-01-26T00:31:45.176Z,102052.25
2023-01-26T00:34:47.842Z,102040.00
2023-01-26T00:37:51.774Z,102035.06
2023-01-26T00:40:54.374Z,102039.97
2023-01-26T00:43:57.037Z,102035.09
2023-01-26T00:46:59.878Z,102022.13
2023-01-26T00:50:02.488Z,102029.63
2023-01-26T00:53:06.435Z,102018.09
2023-01-26T00:56:09.519Z,102018.06
2023-01-26T00:59:12.554Z,102014.13
2023-01-26T01:02:15.184Z,102010.03
2023-01-26T01:05:17.867Z,102005.19
2023-01-26T01:08:21.796Z,102007.00
2023-01-26T01:11:24.419Z,102008.31
2023-01-26T01:14:27.062Z,102001.88
2023-01-26T01:17:29.645Z,102006.22
2023-01-26T01:20:32.242Z,102006.69
2023-01-26T01:23:36.528Z,102003.50
2023-01-26T01:26:40.302Z,102002.16
2023-01-26T01:29:42.900Z,101998.13
2023-01-26T01:32:49.575Z,102001.63
2023-01-26T01:35:58.770Z,102000.97
2023-01-26T01:39:02.732Z,101997.47
2023-01-26T01:42:05.525Z,102002.00
2023-01-26T01:45:40.286Z,101999.84
2023-01-26T01:48:52.261Z,102003.38
2023-01-26T01:51:59.054Z,101995.03
2023-01-26T01:55:07.431Z,101998.59
2023-01-26T01:58:10.660Z,101988.31
2023-01-26T02:01:13.607Z,101984.84
2023-01-26T02:04:16.316Z,101979.84
2023-01-26T02:07:18.963Z,101982.25
2023-01-26T02:10:23.576Z,101979.31
2023-01-26T02:13:28.269Z,101972.66
2023-01-26T02:16:30.928Z,101970.88
2023-01-26T02:19:48.108Z,101976.69
2023-01-26T02:23:00.811Z,101976.84
2023-01-26T02:26:13.751Z,101984.81
2023-01-26T02:29:16.370Z,101980.56
2023-01-26T02:32:18.949Z,101966.38
2023-01-26T02:35:21.640Z,101973.75
2023-01-26T02:38:29.586Z,101964.97
2023-01-26T02:42:05.415Z,101962.38
2023-01-26T02:45:09.539Z,101960.06
2023-01-26T02:48:12.123Z,101941.94
2023-01-26T02:51:13.776Z,101954.72
2023-01-26T02:54:30.467Z,101949.81
2023-01-26T02:57:35.282Z,101944.84
2023-01-26T03:00:40.649Z,101941.50
2023-01-26T03:03:44.918Z,101936.34
2023-01-26T03:06:47.523Z,101938.75
2023-01-26T03:09:50.137Z,101933.69
2023-01-26T03:12:54.516Z,101937.34
2023-01-26T03:16:02.621Z,101934.59
2023-01-26T03:19:23.522Z,101935.09
2023-01-26T03:22:43.853Z,101930.03
2023-01-26T03:26:04.153Z,101931.56
2023-01-26T03:29:08.359Z,101928.13
2023-01-26T03:32:11.062Z,101932.59
2023-01-26T03:35:15.251Z,101924.81
2023-01-26T03:38:17.876Z,101933.72
2023-01-26T03:41:37.904Z,101919.84
2023-01-26T03:44:59.540Z,101923.25
2023-01-26T03:48:24.358Z,101917.56
2023-01-26T03:51:44.740Z,101924.72
2023-01-26T03:55:05.069Z,101920.75
2023-01-26T03:58:09.469Z,101925.78
2023-01-26T04:01:20.058Z,101924.56
2023-01-26T04:04:40.745Z,101923.16
2023-01-26T04:08:00.906Z,101927.50
2023-01-26T04:11:03.531Z,101927.03
2023-01-26T04:14:23.873Z,101929.78
2023-01-26T04:17:45.639Z,101922.41
2023-01-26T04:21:06.138Z,101927.47
2023-01-26T04:24:09.596Z,101920.38
2023-01-26T04:27:12.241Z,101917.88
2023-01-26T04:30:17.396Z,101921.75
2023-01-26T04:33:21.366Z,101912.66
2023-01-26T04:36:23.932Z,101913.06
2023-01-26T04:39:26.590Z,101917.13
2023-01-26T04:42:29.193Z,101901.56
2023-01-26T04:45:31.821Z,101891.03
2023-01-26T04:48:36.551Z,101897.91
2023-01-26T04:51:39.193Z,101898.41
2023-01-26T04:54:42.381Z,101908.69
2023-01-26T04:57:44.950Z,101900.31
2023-01-26T05:00:51.788Z,101891.16
2023-01-26T05:03:55.840Z,101886.06
2023-01-26T05:06:58.609Z,101888.25
2023-01-26T05:10:01.192Z,101888.47
2023-01-26T05:13:03.782Z,101885.31
2023-01-26T05:16:07.732Z,101889.88
2023-01-26T05:19:11.751Z,101884.56
2023-01-26T05:22:14.315Z,101884.91
2023-01-26T05:25:17.130Z,101887.34
2023-01-26T05:28:19.835Z,101885.47
2023-01-26T05:31:22.507Z,101883.16
2023-01-26T05:34:26.461Z,101888.84
2023-01-26T05:37:29.591Z,101878.84
2023-01-26T05:40:32.252Z,101881.66
2023-01-26T05:43:34.797Z,101891.97
2023-01-26T05:46:37.390Z,101884.28
2023-01-26T05:49:42.902Z,101884.91
2023-01-26T05:52:46.577Z,101886.03
2023-01-26T05:55:49.252Z,101888.91
2023-01-26T05:58:51.809Z,101893.84
2023-01-26T06:01:54.440Z,101886.09
2023-01-26T06:04:58.391Z,101887.84
2023-01-26T06:08:00.986Z,101892.22
2023-01-26T06:11:03.577Z,101894.13
2023-01-26T06:14:06.164Z,101892.06
2023-01-26T06:17:08.771Z,101891.41
2023-01-26T06:20:14.645Z,101900.31
2023-01-26T06:23:17.333Z,101896.06
2023-01-26T06:26:20.022Z,101894.69
2023-01-26T06:29:22.629Z,101893.97
2023-01-26T06:32:25.337Z,101900.31
2023-01-26T06:35:29.339Z,101909.63
2023-01-26T06:38:32.638Z,101904.06
2023-01-26T06:41:35.243Z,101895.78
2023-01-26T06:44:37.836Z,101907.28
2023-01-26T06:47:45.939Z,101903.63
2023-01-26T06:50:52.156Z,101899.78
2023-01-26T06:53:56.746Z,101908.44
2023-01-26T06:56:59.353Z,101917.72
2023-01-26T07:00:01.938Z,101915.22
2023-01-26T07:03:04.545Z,101907.16
2023-01-26T07:06:12.124Z,101919.09
2023-01-26T07:09:14.718Z,101917.78
2023-01-26T07:12:17.306Z,101908.25
2023-01-26T07:15:19.893Z,101909.50
2023-01-26T07:18:22.459Z,101914.78
2023-01-26T07:21:26.393Z,101910.84
2023-01-26T07:24:29.275Z,101914.94
2023-01-26T07:27:31.869Z,101909.47
2023-01-26T07:30:34.489Z,101910.19
2023-01-26T07:33:37.188Z,101915.19
2023-01-26T07:36:41.203Z,101920.53
2023-01-26T07:39:43.792Z,101913.38
2023-01-26T07:42:46.364Z,101920.34
2023-01-26T07:45:51.279Z,101918.69
2023-01-26T07:48:53.882Z,101920.66
2023-01-26T07:51:57.817Z,101919.94
2023-01-26T07:55:00.429Z,101914.81
2023-01-26T07:58:03.048Z,101923.50
2023-01-26T08:01:10.779Z,101923.28
2023-01-26T08:04:13.504Z,101929.47
2023-01-26T08:07:17.528Z,101925.00
2023-01-26T08:10:20.251Z,101925.22
2023-01-26T08:13:34.377Z,101917.81
2023-01-26T08:16:37.779Z,101924.63
2023-01-26T08:19:40.391Z,101932.41
2023-01-26T08:22:44.341Z,101936.66
2023-01-26T08:25:47.585Z,101935.72
2023-01-26T08:28:50.329Z,101921.78
2023-01-26T08:31:53.564Z,101923.06
2023-01-26T08:34:56.178Z,101923.91
2023-01-26T08:38:00.353Z,101935.28
2023-01-26T08:41:03.823Z,101940.72
2023-01-26T08:44:06.708Z,101936.06
2023-01-26T08:47:09.291Z,101933.72
2023-01-26T08:50:12.639Z,101935.44
2023-01-26T08:53:16.776Z,101937.31
2023-01-26T08:56:19.385Z,101933.94
2023-01-26T08:59:22.014Z,101930.19
2023-01-26T09:02:24.662Z,101935.72
2023-01-26T09:05:27.645Z,101940.72
2023-01-26T09:08:32.192Z,101939.38
2023-01-26T09:11:34.749Z,101928.38
2023-01-26T09:14:37.326Z,101940.88
2023-01-26T09:17:39.921Z,101943.56
2023-01-26T09:20:42.916Z,101935.69
2023-01-26T09:23:46.883Z,101936.69
2023-01-26T09:26:49.494Z,101932.72
2023-01-26T09:29:52.247Z,101933.88
2023-01-26T09:32:58.966Z,101919.63
2023-01-26T09:36:05.127Z,101930.44
2023-01-26T09:39:09.092Z,101925.00
2023-01-26T09:42:28.922Z,101928.84
2023-01-26T09:45:37.937Z,101930.53
2023-01-26T09:48:44.944Z,101935.09
2023-01-26T09:51:52.024Z,101933.44
2023-01-26T09:54:59.626Z,101933.41
2023-01-26T09:58:05.923Z,101932.34
2023-01-26T10:01:18.676Z,101926.03
2023-01-26T10:04:33.729Z,101921.00
2023-01-26T10:07:36.347Z,101926.25
2023-01-26T10:10:45.347Z,101919.19
2023-01-26T10:13:55.785Z,101911.47
2023-01-26T10:17:00.704Z,101914.00
2023-01-26T10:20:07.435Z,101898.19
2023-01-26T10:23:16.610Z,101893.31
2023-01-26T10:26:22.782Z,101894.94
2023-01-26T10:29:25.349Z,101910.53
2023-01-26T10:32:28.006Z,101908.09
2023-01-26T10:35:30.772Z,101912.22
2023-01-26T10:38:41.542Z,101907.63
2023-01-26T10:41:58.835Z,101898.28
2023-01-26T10:45:03.262Z,101893.16
2023-01-26T10:48:16.864Z,101891.13
2023-01-26T10:51:24.996Z,101893.06
2023-01-26T10:54:28.840Z,101893.94
2023-01-26T10:57:33.403Z,101894.69
2023-01-26T11:00:37.031Z,101884.41
2023-01-26T11:03:40.419Z,101884.94
2023-01-26T11:06:43.059Z,101887.16
2023-01-26T11:09:47.479Z,101882.91
2023-01-26T11:12:52.313Z,101892.47
2023-01-26T11:16:04.700Z,101897.63
2023-01-26T11:19:14.452Z,101894.13
2023-01-26T11:22:20.514Z,101905.66
2023-01-26T11:25:27.102Z,101888.19
2023-01-26T11:28:44.786Z,101891.69
2023-01-26T11:32:00.306Z,101881.78
2023-01-26T11:35:14.184Z,101891.56
2023-01-26T11:38:33.569Z,101883.06
2023-01-26T11:41:49.405Z,101869.94
2023-01-26T11:45:09.629Z,101865.66
2023-01-26T11:48:22.423Z,101870.91
2023-01-26T11:51:38.273Z,101863.94
2023-01-26T11:54:59.040Z,101856.97
2023-01-26T11:58:20.959Z,101845.72
2023-01-26T12:01:29.915Z,101851.03
2023-01-26T12:04:36.789Z,101849.25
2023-01-26T12:07:55.524Z,101841.44
2023-01-26T12:11:22.283Z,101846.53
2023-01-26T12:14:30.823Z,101848.34
2023-01-26T12:17:44.563Z,101820.47
2023-01-26T12:20:52.709Z,101818.72
2023-01-26T12:24:02.096Z,101823.03
2023-01-26T12:27:14.637Z,101821.44
2023-01-26T12:30:27.611Z,101814.44
2023-01-26T12:33:32.856Z,101812.72
2023-01-26T12:36:45.934Z,101804.84
2023-01-26T12:39:58.953Z,101812.69
2023-01-26T12:43:15.661Z,101803.00
2023-01-26T12:46:18.714Z,101801.31
2023-01-26T12:49:27.226Z,101805.75
2023-01-26T12:52:35.560Z,101795.28
2023-01-26T12:55:45.021Z,101793.56
2023-01-26T12:58:51.297Z,101791.78
2023-01-26T13:01:54.076Z,101790.97
2023-01-26T13:04:59.993Z,101790.94
2023-01-26T13:08:32.381Z,101796.25
2023-01-26T13:11:50.436Z,101789.22
2023-01-26T13:15:07.051Z,101794.50
2023-01-26T13:18:17.766Z,101801.47
2023-01-26T13:21:29.019Z,101799.75
2023-01-26T13:24:46.768Z,101794.50
2023-01-26T13:27:57.445Z,101798.84
2023-01-26T13:31:04.940Z,101791.88
2023-01-26T13:34:10.310Z,101799.78
2023-01-26T13:37:20.107Z,101786.66
2023-01-26T13:40:29.953Z,101790.16
2023-01-26T13:43:38.064Z,101790.94
2023-01-26T13:46:44.891Z,101789.28
2023-01-26T13:49:49.267Z,101805.03
2023-01-26T13:52:53.287Z,101801.56
2023-01-26T13:55:59.764Z,101801.44
2023-01-26T13:59:11.781Z,101805.00
2023-01-26T14:02:23.716Z,101810.28
2023-01-26T14:05:26.358Z,101818.91
2023-01-26T14:08:32.517Z,101807.47
2023-01-26T14:11:35.515Z,101820.59
2023-01-26T14:14:38.651Z,101825.88
2023-01-26T14:17:49.723Z,101822.41
2023-01-26T14:20:59.840Z,101821.59
2023-01-26T14:24:03.849Z,101829.50
2023-01-26T14:27:07.325Z,101830.41
2023-01-26T14:30:23.891Z,101840.03
2023-01-26T14:33:26.679Z,101839.09
2023-01-26T14:36:36.920Z,101845.28
2023-01-26T14:39:42.731Z,101847.94
2023-01-26T14:42:45.611Z,101845.31
2023-01-26T14:45:52.143Z,101849.63
2023-01-26T14:48:59.679Z,101846.13
2023-01-26T14:52:02.720Z,101847.97
2023-01-26T14:55:09.455Z,101847.06
2023-01-26T14:58:16.764Z,101849.63
2023-01-26T15:01:24.189Z,101842.50
2023-01-26T15:04:37.821Z,101847.91
2023-01-26T15:07:43.985Z,101853.19
2023-01-26T15:11:16.679Z,101855.63
2023-01-26T15:14:33.468Z,101859.22
2023-01-26T15:17:41.214Z,101855.47
2023-01-26T15:20:45.990Z,101853.06
2023-01-26T15:23:52.171Z,101854.88
2023-01-26T15:27:05.945Z,101868.94
2023-01-26T15:30:17.494Z,101860.09
2023-01-26T15:33:46.606Z,101865.31
2023-01-26T15:36:51.655Z,101867.94
2023-01-26T15:39:54.236Z,101865.25
2023-01-26T15:43:12.673Z,101875.66
2023-01-26T15:46:15.359Z,101869.56
2023-01-26T15:49:19.960Z,101864.44
2023-01-26T15:52:25.630Z,101864.50
2023-01-26T15:55:30.471Z,101865.28
2023-01-26T15:58:36.621Z,101860.91
2023-01-26T16:01:39.951Z,101867.97
2023-01-26T16:04:42.869Z,101861.03
2023-01-26T16:07:46.824Z,101852.31
2023-01-26T16:10:49.537Z,101855.84
2023-01-26T16:14:02.785Z,101860.25
2023-01-26T16:17:12.962Z,101858.47
2023-01-26T16:20:15.543Z,101863.75
2023-01-26T16:23:20.199Z,101873.34
2023-01-26T16:26:22.777Z,101861.13
2023-01-26T16:29:26.872Z,101868.16
2023-01-26T16:32:30.397Z,101873.41
2023-01-26T16:35:33.029Z,101876.94
2023-01-26T16:38:35.662Z,101877.81
2023-01-26T16:41:38.275Z,101871.66
2023-01-26T16:44:42.258Z,101879.56
2023-01-26T16:47:44.935Z,101875.16
2023-01-26T16:50:47.742Z,101882.16
2023-01-26T16:53:50.940Z,101881.31
2023-01-26T16:56:53.919Z,101879.56
2023-01-26T16:59:57.837Z,101883.94
2023-01-26T17:03:00.451Z,101890.97
2023-01-26T17:06:03.045Z,101888.31
2023-01-26T17:09:05.881Z,101890.94
2023-01-26T17:12:10.206Z,101898.81
2023-01-26T17:15:14.415Z,101899.69
2023-01-26T17:18:17.172Z,101907.56
2023-01-26T17:21:21.036Z,101912.84
2023-01-26T17:24:23.638Z,101910.22
2023-01-26T17:27:26.769Z,101919.88
2023-01-26T17:30:30.829Z,101921.66
2023-01-26T17:33:33.409Z,101920.78
2023-01-26T17:36:35.991Z,101911.13
2023-01-26T17:39:38.583Z,101919.03
2023-01-26T17:42:41.194Z,101922.50
2023-01-26T17:45:45.170Z,101922.53
2023-01-26T17:48:50.306Z,101928.66
2023-01-26T17:51:53.066Z,101933.88
2023-01-26T17:54:55.661Z,101929.53
2023-01-26T17:57:58.243Z,101929.53
2023-01-26T18:01:02.232Z,101933.06
2023-01-26T18:04:04.911Z,101933.03
2023-01-26T18:07:07.542Z,101924.31
2023-01-26T18:10:11.359Z,101931.28
2023-01-26T18:13:14.177Z,101935.72
2023-01-26T18:16:20.323Z,101928.69
2023-01-26T18:19:23.098Z,101928.69
2023-01-26T18:22:25.772Z,101937.44
2023-01-26T18:25:28.378Z,101931.31
2023-01-26T18:28:30.929Z,101941.81
2023-01-26T18:31:36.774Z,101939.22
2023-01-26T18:34:41.709Z,101937.47
2023-01-26T18:37:44.315Z,101931.31
2023-01-26T18:40:46.912Z,101934.81
2023-01-26T18:43:51.783Z,101943.59
2023-01-26T18:46:55.754Z,101941.84
2023-01-26T18:49:58.410Z,101941.84
2023-01-26T18:53:01.043Z,101949.72
2023-01-26T18:56:05.610Z,101958.50
2023-01-26T18:59:10.360Z,101954.09
2023-01-26T19:02:15.498Z,101955.84
2023-01-26T19:05:18.340Z,101959.38
2023-01-26T19:08:23.503Z,101954.09
2023-01-26T19:11:28.495Z,101958.50
2023-01-26T19:14:32.136Z,101953.25
2023-01-26T19:17:36.107Z,101954.09
2023-01-26T19:20:38.697Z,101952.34
2023-01-26T19:23:42.622Z,101951.47
2023-01-26T19:26:45.258Z,101965.50
2023-01-26T19:29:47.824Z,101971.66
2023-01-26T19:33:09.246Z,101966.41
2023-01-26T19:36:11.925Z,101975.16
2023-01-26T19:39:14.709Z,101977.78
2023-01-26T19:42:17.271Z,101983.94
2023-01-26T19:45:19.908Z,101983.03
2023-01-26T19:48:25.887Z,101968.13
2023-01-26T19:51:29.281Z,101980.38
2023-01-26T19:54:31.877Z,101978.69
2023-01-26T19:57:34.531Z,101977.78
2023-01-26T20:00:37.090Z,101976.03
2023-01-26T20:03:41.549Z,101979.50
2023-01-26T20:06:44.164Z,101979.56
2023-01-26T20:09:46.948Z,101980.41
2023-01-26T20:12:49.658Z,101974.28
2023-01-26T20:15:52.229Z,101983.94
2023-01-26T20:18:56.254Z,101975.16
2023-01-26T20:21:59.723Z,101975.16
2023-01-26T20:25:02.355Z,101973.41
2023-01-26T20:28:05.628Z,101976.91
2023-01-26T20:31:10.141Z,101980.41
2023-01-26T20:34:14.787Z,101991.81
2023-01-26T20:37:17.402Z,101988.28
2023-01-26T20:40:20.220Z,101984.81
2023-01-26T20:43:22.806Z,101995.31
2023-01-26T20:46:25.720Z,101993.56
2023-01-26T20:49:29.777Z,102001.47
2023-01-26T20:52:32.401Z,101999.72
2023-01-26T20:55:35.020Z,101997.06
2023-01-26T20:58:37.623Z,101999.69
2023-01-26T21:01:40.221Z,102004.13
2023-01-26T21:04:44.222Z,101994.47
2023-01-26T21:07:46.972Z,102004.97
2023-01-26T21:10:50.476Z,101998.81
2023-01-26T21:13:53.061Z,102003.22
2023-01-26T21:16:55.738Z,102004.09
2023-01-26T21:19:59.737Z,101996.22
2023-01-26T21:23:02.341Z,101990.94
2023-01-26T21:26:06.766Z,101997.97
2023-01-26T21:29:14.320Z,101995.34
2023-01-26T21:32:16.931Z,101986.53
2023-01-26T21:35:20.924Z,101992.69
2023-01-26T21:38:23.547Z,101983.03
2023-01-26T21:41:46.784Z,101982.16
2023-01-26T21:45:07.068Z,101989.16
2023-01-26T21:48:27.390Z,101983.91
2023-01-26T21:51:48.767Z,101989.19
2023-01-26T21:54:51.338Z,101991.78
2023-01-26T21:58:11.679Z,101990.94
2023-01-26T22:01:14.280Z,101996.19
2023-01-26T22:04:20.000Z,101997.06
2023-01-26T22:07:23.985Z,102001.47
2023-01-26T22:10:26.562Z,101993.56
2023-01-26T22:13:29.589Z,102010.25
2023-01-26T22:16:33.254Z,102001.47
2023-01-26T22:19:35.889Z,101999.69
2023-01-26T22:22:39.835Z,102004.97
2023-01-26T22:25:42.851Z,101997.94
2023-01-26T22:28:50.008Z,102007.59
2023-01-26T22:31:52.896Z,102007.56
2023-01-26T22:34:55.485Z,102012.00
2023-01-26T22:37:59.894Z,102016.34
2023-01-26T22:41:02.722Z,102009.34
2023-01-26T22:44:05.371Z,102019.03
2023-01-26T22:47:08.084Z,102004.09
2023-01-26T22:50:12.460Z,102012.88
2023-01-26T22:53:16.555Z,102001.47
2023-01-26T22:56:20.084Z,102011.13
2023-01-26T22:59:22.657Z,102004.09
2023-01-26T23:02:25.327Z,102008.50
2023-01-26T23:05:27.931Z,102010.22
2023-01-26T23:08:32.678Z,102000.59
2023-01-26T23:11:35.676Z,102013.75
2023-01-26T23:14:38.442Z,102012.00
2023-01-26T23:17:41.079Z,102014.63
2023-01-26T23:20:43.708Z,102012.00
2023-01-26T23:23:47.737Z,102010.25
2023-01-26T23:26:50.335Z,102003.22
2023-01-26T23:29:52.931Z,101999.72
2023-01-26T23:32:55.541Z,102005.84
2023-01-26T23:35:58.534Z,102010.25
2023-01-26T23:39:02.457Z,102010.22
2023-01-26T23:42:05.062Z,102014.63
2023-01-26T23:45:08.789Z,102011.09
2023-01-26T23:48:11.421Z,102015.50
2023-01-26T23:51:14.204Z,102008.50
2023-01-26T23:54:18.449Z,102017.25
2023-01-26T23:57:21.028Z,102013.75
